createdAt,value
2023-07-31T00:00:50.622Z,100425.59
2023-07-31T00:03:19.711Z,100432.91
2023-07-31T00:05:48.361Z,100431.34
2023-07-31T00:08:16.862Z,100422.78
2023-07-31T00:10:45.109Z,100417.19
2023-07-31T00:13:16.277Z,100424.13
2023-07-31T00:15:44.581Z,100421.31
2023-07-31T00:18:14.466Z,100434.03
2023-07-31T00:20:43.167Z,100425.72
2023-07-31T00:23:11.612Z,100427.19
2023-07-31T00:25:41.811Z,100420.22
2023-07-31T00:28:10.385Z,100420.34
2023-07-31T00:30:38.750Z,100406.94
2023-07-31T00:33:07.390Z,100409.13
2023-07-31T00:35:37.495Z,100415.59
2023-07-31T00:38:05.941Z,100419.03
2023-07-31T00:40:38.499Z,100409.38
2023-07-31T00:43:07.214Z,100409.72
2023-07-31T00:45:37.269Z,100410.81
2023-07-31T00:48:08.016Z,100414.84
2023-07-31T00:50:38.487Z,100409.13
2023-07-31T00:53:07.401Z,100400.94
2023-07-31T00:55:36.056Z,100400.81
2023-07-31T00:58:04.425Z,100406.69
2023-07-31T01:00:33.126Z,100394.63
2023-07-31T01:03:02.814Z,100388.88
2023-07-31T01:05:38.781Z,100398.63
2023-07-31T01:08:17.892Z,100389.72
2023-07-31T01:10:52.798Z,100391.56
2023-07-31T01:13:22.274Z,100396.53
2023-07-31T01:15:50.440Z,100392.28
2023-07-31T01:18:18.572Z,100398.63
2023-07-31T01:20:54.369Z,100397.19
2023-07-31T01:23:43.806Z,100392.69
2023-07-31T01:26:23.278Z,100401.31
2023-07-31T01:28:58.948Z,100399.75
2023-07-31T01:31:28.826Z,100400.47
2023-07-31T01:34:01.985Z,100385.97
2023-07-31T01:36:33.535Z,100393.53
2023-07-31T01:39:04.962Z,100389.38
2023-07-31T01:41:34.813Z,100391.19
2023-07-31T01:44:03.065Z,100391.81
2023-07-31T01:46:31.478Z,100387.16
2023-07-31T01:48:59.940Z,100389.38
2023-07-31T01:51:28.224Z,100380.81
2023-07-31T01:53:58.465Z,100385.09
2023-07-31T01:56:26.878Z,100381.19
2023-07-31T01:58:56.688Z,100371.06
2023-07-31T02:01:25.306Z,100368.63
2023-07-31T02:03:53.810Z,100370.09
2023-07-31T02:06:24.702Z,100360.84
2023-07-31T02:08:54.737Z,100366.22
2023-07-31T02:11:22.984Z,100359.97
2023-07-31T02:13:52.261Z,100358.66
2023-07-31T02:16:22.103Z,100354.50
2023-07-31T02:18:50.466Z,100348.53
2023-07-31T02:21:18.787Z,100349.41
2023-07-31T02:23:47.081Z,100343.78
2023-07-31T02:26:15.813Z,100343.31
2023-07-31T02:28:44.314Z,100347.22
2023-07-31T02:31:13.991Z,100340.25
2023-07-31T02:33:45.029Z,100335.03
2023-07-31T02:36:14.009Z,100340.13
2023-07-31T02:38:42.754Z,100337.44
2023-07-31T02:41:11.422Z,100326.97
2023-07-31T02:43:39.601Z,100335.75
2023-07-31T02:46:07.979Z,100327.59
2023-07-31T02:48:38.419Z,100332.22
2023-07-31T02:51:09.130Z,100333.06
2023-07-31T02:53:37.386Z,100329.88
2023-07-31T02:56:06.432Z,100326.94
2023-07-31T02:58:34.936Z,100328.16
2023-07-31T03:01:03.480Z,100337.81
2023-07-31T03:03:31.935Z,100332.44
2023-07-31T03:06:00.435Z,100330.38
2023-07-31T03:08:30.116Z,100323.53
2023-07-31T03:10:58.889Z,100324.91
2023-07-31T03:13:27.279Z,100334.03
2023-07-31T03:15:55.848Z,100333.66
2023-07-31T03:18:24.452Z,100337.06
2023-07-31T03:20:52.880Z,100336.25
2023-07-31T03:23:21.492Z,100333.31
2023-07-31T03:26:01.828Z,100345.97
2023-07-31T03:28:30.953Z,100331.22
2023-07-31T03:30:59.457Z,100324.28
2023-07-31T03:33:28.083Z,100317.47
2023-07-31T03:35:56.410Z,100326.47
2023-07-31T03:38:24.941Z,100324.78
2023-07-31T03:40:55.713Z,100331.59
2023-07-31T03:43:28.640Z,100329.88
2023-07-31T03:45:57.205Z,100332.56
2023-07-31T03:48:27.117Z,100323.28
2023-07-31T03:50:56.809Z,100319.75
2023-07-31T03:53:27.198Z,100310.38
2023-07-31T03:55:59.102Z,100316.00
2023-07-31T03:58:28.598Z,100320.88
2023-07-31T04:00:57.292Z,100321.97
2023-07-31T04:03:25.686Z,100322.56
2023-07-31T04:05:56.067Z,100323.78
2023-07-31T04:08:24.942Z,100322.69
2023-07-31T04:10:53.231Z,100325.13
2023-07-31T04:13:21.558Z,100327.69
2023-07-31T04:15:53.952Z,100328.31
2023-07-31T04:18:22.546Z,100335.25
2023-07-31T04:20:50.678Z,100329.66
2023-07-31T04:23:18.933Z,100329.66
2023-07-31T04:25:47.353Z,100326.00
2023-07-31T04:28:15.616Z,100330.47
2023-07-31T04:30:43.955Z,100324.63
2023-07-31T04:33:16.454Z,100325.13
2023-07-31T04:35:53.005Z,100327.19
2023-07-31T04:38:21.624Z,100322.53
2023-07-31T04:40:50.146Z,100314.28
2023-07-31T04:43:18.719Z,100323.53
2023-07-31T04:45:49.028Z,100315.88
2023-07-31T04:48:18.800Z,100323.66
2023-07-31T04:50:47.016Z,100318.91
2023-07-31T04:53:15.227Z,100312.72
2023-07-31T04:55:43.445Z,100316.00
2023-07-31T04:58:11.566Z,100314.03
2023-07-31T05:00:39.773Z,100313.78
2023-07-31T05:03:08.484Z,100314.53
2023-07-31T05:05:38.330Z,100312.59
2023-07-31T05:08:06.624Z,100313.31
2023-07-31T05:10:34.977Z,100312.34
2023-07-31T05:13:03.243Z,100315.88
2023-07-31T05:15:31.654Z,100313.91
2023-07-31T05:17:59.972Z,100313.78
2023-07-31T05:20:28.796Z,100307.19
2023-07-31T05:22:58.579Z,100309.03
2023-07-31T05:25:27.021Z,100314.00
2023-07-31T05:27:55.320Z,100312.19
2023-07-31T05:30:23.607Z,100307.19
2023-07-31T05:32:51.913Z,100309.88
2023-07-31T05:35:20.471Z,100314.84
2023-07-31T05:37:48.645Z,100312.13
2023-07-31T05:40:18.506Z,100313.84
2023-07-31T05:42:46.918Z,100301.53
2023-07-31T05:45:15.599Z,100306.09
2023-07-31T05:47:44.220Z,100307.16
2023-07-31T05:50:12.886Z,100309.00
2023-07-31T05:52:41.120Z,100301.41
2023-07-31T05:55:11.110Z,100300.94
2023-07-31T05:57:40.849Z,100299.69
2023-07-31T06:00:13.182Z,100295.41
2023-07-31T06:02:43.374Z,100286.75
2023-07-31T06:05:11.798Z,100292.66
2023-07-31T06:07:40.204Z,100283.94
2023-07-31T06:10:10.424Z,100293.59
2023-07-31T06:12:40.348Z,100293.03
2023-07-31T06:15:09.234Z,100283.09
2023-07-31T06:17:37.561Z,100289.34
2023-07-31T06:20:07.335Z,100293.16
2023-07-31T06:22:35.352Z,100291.72
2023-07-31T06:25:04.220Z,100293.16
2023-07-31T06:27:32.802Z,100295.69
2023-07-31T06:30:02.593Z,100292.25
2023-07-31T06:32:32.664Z,100286.72
2023-07-31T06:35:01.047Z,100291.06
2023-07-31T06:37:29.571Z,100284.09
2023-07-31T06:39:57.853Z,100292.13
2023-07-31T06:42:26.929Z,100284.13
2023-07-31T06:44:55.441Z,100294.78
2023-07-31T06:47:25.155Z,100288.50
2023-07-31T06:50:02.980Z,100295.38
2023-07-31T06:52:31.316Z,100289.34
2023-07-31T06:55:04.820Z,100293.81
2023-07-31T06:57:33.130Z,100289.25
2023-07-31T07:00:01.605Z,100286.63
2023-07-31T07:02:31.621Z,100291.63
2023-07-31T07:05:00.196Z,100291.75
2023-07-31T07:07:28.884Z,100290.69
2023-07-31T07:09:57.223Z,100294.25
2023-07-31T07:12:25.536Z,100289.09
2023-07-31T07:14:54.139Z,100289.84
2023-07-31T07:17:22.920Z,100288.16
2023-07-31T07:19:52.575Z,100292.94
2023-07-31T07:22:20.781Z,100286.28
2023-07-31T07:24:49.195Z,100276.25
2023-07-31T07:27:18.444Z,100280.34
2023-07-31T07:29:47.811Z,100278.63
2023-07-31T07:32:16.677Z,100265.13
2023-07-31T07:34:44.946Z,100275.03
2023-07-31T07:37:15.056Z,100278.88
2023-07-31T07:39:43.996Z,100276.38
2023-07-31T07:42:12.301Z,100276.38
2023-07-31T07:44:40.864Z,100274.72
2023-07-31T07:47:09.459Z,100273.22
2023-07-31T07:49:38.031Z,100266.50
2023-07-31T07:52:07.065Z,100268.03
2023-07-31T07:54:36.586Z,100260.81
2023-07-31T07:57:06.767Z,100260.19
2023-07-31T07:59:35.061Z,100264.56
2023-07-31T08:02:03.878Z,100261.66
2023-07-31T08:04:32.397Z,100247.28
2023-07-31T08:07:00.749Z,100249.28
2023-07-31T08:09:29.261Z,100246.56
2023-07-31T08:12:03.096Z,100247.00
2023-07-31T08:14:33.362Z,100251.44
2023-07-31T08:17:02.651Z,100243.97
2023-07-31T08:19:31.457Z,100253.19
2023-07-31T08:22:00.094Z,100245.19
2023-07-31T08:24:28.422Z,100234.59
2023-07-31T08:26:58.550Z,100242.22
2023-07-31T08:29:27.401Z,100229.50
2023-07-31T08:31:55.752Z,100230.84
2023-07-31T08:34:24.794Z,100231.38
2023-07-31T08:36:53.307Z,100222.50
2023-07-31T08:39:21.947Z,100215.34
2023-07-31T08:41:50.238Z,100212.53
2023-07-31T08:44:20.208Z,100204.44
2023-07-31T08:46:51.632Z,100202.41
2023-07-31T08:49:22.514Z,100209.81
2023-07-31T08:51:52.656Z,100209.28
2023-07-31T08:54:21.237Z,100215.13
2023-07-31T08:56:53.372Z,100207.78
2023-07-31T08:59:24.910Z,100196.81
2023-07-31T09:01:57.265Z,100197.38
2023-07-31T09:04:26.991Z,100194.28
2023-07-31T09:07:02.314Z,100192.41
2023-07-31T09:09:30.586Z,100190.47
2023-07-31T09:12:00.436Z,100204.34
2023-07-31T09:14:30.286Z,100200.97
2023-07-31T09:17:01.518Z,100190.94
2023-07-31T09:19:31.693Z,100191.44
2023-07-31T09:22:00.980Z,100184.13
2023-07-31T09:24:31.420Z,100181.91
2023-07-31T09:27:01.351Z,100177.63
2023-07-31T09:29:32.096Z,100182.44
2023-07-31T09:32:02.508Z,100178.31
2023-07-31T09:34:38.812Z,100181.47
2023-07-31T09:37:07.541Z,100185.81
2023-07-31T09:39:48.385Z,100175.34
2023-07-31T09:42:27.726Z,100169.19
2023-07-31T09:45:09.846Z,100169.38
2023-07-31T09:47:38.345Z,100170.56
2023-07-31T09:50:11.313Z,100165.84
2023-07-31T09:52:41.016Z,100151.88
2023-07-31T09:55:10.156Z,100155.50
2023-07-31T09:57:41.624Z,100159.72
2023-07-31T10:00:12.654Z,100153.28
2023-07-31T10:02:43.517Z,100152.13
2023-07-31T10:05:15.392Z,100158.56
2023-07-31T10:07:45.838Z,100151.69
2023-07-31T10:10:16.082Z,100150.69
2023-07-31T10:12:46.060Z,100139.72
2023-07-31T10:15:17.291Z,100139.06
2023-07-31T10:17:46.094Z,100136.25
2023-07-31T10:20:15.164Z,100130.81
2023-07-31T10:22:43.576Z,100125.13
2023-07-31T10:25:12.114Z,100118.22
2023-07-31T10:27:41.340Z,100108.50
2023-07-31T10:30:20.023Z,100112.59
2023-07-31T10:32:51.386Z,100109.00
2023-07-31T10:35:20.601Z,100115.88
2023-07-31T10:37:49.556Z,100124.31
2023-07-31T10:40:20.976Z,100114.69
2023-07-31T10:42:51.051Z,100115.84
2023-07-31T10:45:33.842Z,100112.56
2023-07-31T10:48:03.076Z,100114.63
2023-07-31T10:50:34.029Z,100121.19
2023-07-31T10:53:03.040Z,100121.41
2023-07-31T10:55:33.572Z,100124.72
2023-07-31T10:58:10.014Z,100120.72
2023-07-31T11:00:41.242Z,100117.03
2023-07-31T11:03:14.739Z,100119.03
2023-07-31T11:05:53.412Z,100104.59
2023-07-31T11:08:24.404Z,100105.72
2023-07-31T11:11:06.896Z,100100.56
2023-07-31T11:13:41.517Z,100104.16
2023-07-31T11:16:12.125Z,100101.59
2023-07-31T11:18:42.182Z,100100.69
2023-07-31T11:21:10.718Z,100098.13
2023-07-31T11:23:40.597Z,100103.56
2023-07-31T11:26:09.725Z,100098.50
2023-07-31T11:28:40.869Z,100091.94
2023-07-31T11:31:13.107Z,100105.06
2023-07-31T11:33:41.822Z,100111.81
2023-07-31T11:36:17.843Z,100101.06
2023-07-31T11:38:46.181Z,100098.22
2023-07-31T11:41:19.058Z,100095.84
2023-07-31T11:43:48.353Z,100096.25
2023-07-31T11:46:18.939Z,100090.88
2023-07-31T11:48:47.687Z,100074.16
2023-07-31T11:51:16.984Z,100068.81
2023-07-31T11:53:47.293Z,100062.00
2023-07-31T11:56:21.368Z,100072.81
2023-07-31T11:58:52.420Z,100060.66
2023-07-31T12:01:29.612Z,100061.81
2023-07-31T12:03:59.237Z,100056.53
2023-07-31T12:06:34.636Z,100051.50
2023-07-31T12:09:05.734Z,100053.09
2023-07-31T12:11:44.517Z,100060.56
2023-07-31T12:14:22.561Z,100057.13
2023-07-31T12:16:56.158Z,100049.41
2023-07-31T12:19:29.234Z,100046.63
2023-07-31T12:21:58.010Z,100051.38
2023-07-31T12:24:29.284Z,100040.97
2023-07-31T12:27:00.422Z,100040.22
2023-07-31T12:29:40.796Z,100026.50
2023-07-31T12:32:25.500Z,100026.81
2023-07-31T12:34:54.111Z,100033.25
2023-07-31T12:37:24.522Z,100031.34
2023-07-31T12:39:52.892Z,100024.81
2023-07-31T12:42:21.564Z,100018.56
2023-07-31T12:44:50.959Z,100010.03
2023-07-31T12:47:19.266Z,100020.22
2023-07-31T12:49:52.077Z,100018.63
2023-07-31T12:52:20.706Z,100018.38
2023-07-31T12:54:49.131Z,100016.97
2023-07-31T12:57:17.534Z,100015.09
2023-07-31T12:59:46.176Z,100004.09
2023-07-31T13:02:14.553Z,100004.41
2023-07-31T13:04:42.821Z,99995.28
2023-07-31T13:07:13.742Z,100005.22
2023-07-31T13:09:45.059Z,99995.91
2023-07-31T13:12:20.879Z,100006.00
2023-07-31T13:14:54.606Z,99997.41
2023-07-31T13:17:25.924Z,99997.97
2023-07-31T13:19:54.423Z,99998.44
2023-07-31T13:22:27.768Z,99985.22
2023-07-31T13:24:58.551Z,99984.91
2023-07-31T13:27:28.376Z,99986.16
2023-07-31T13:29:56.839Z,99985.63
2023-07-31T13:32:34.834Z,99985.81
2023-07-31T13:35:09.700Z,99981.38
2023-07-31T13:37:47.114Z,99980.22
2023-07-31T13:40:24.196Z,99978.84
2023-07-31T13:42:55.382Z,99978.19
2023-07-31T13:45:31.574Z,99970.78
2023-07-31T13:48:04.990Z,99958.69
2023-07-31T13:50:36.513Z,99965.66
2023-07-31T13:53:17.399Z,99958.28
2023-07-31T13:56:00.311Z,99963.19
2023-07-31T13:58:30.712Z,99959.34
2023-07-31T14:00:59.047Z,99960.00
2023-07-31T14:03:47.167Z,99959.94
2023-07-31T14:06:24.286Z,99955.25
2023-07-31T14:08:57.601Z,99962.63
2023-07-31T14:11:29.463Z,99955.84
2023-07-31T14:13:59.601Z,99947.38
2023-07-31T14:16:30.842Z,99945.59
2023-07-31T14:19:02.797Z,99947.00
2023-07-31T14:21:37.917Z,99949.09
2023-07-31T14:24:21.321Z,99939.16
2023-07-31T14:27:05.992Z,99931.38
2023-07-31T14:29:39.050Z,99932.78
2023-07-31T14:32:11.671Z,99923.19
2023-07-31T14:34:40.036Z,99921.78
2023-07-31T14:37:22.862Z,99919.66
2023-07-31T14:39:53.900Z,99919.25
2023-07-31T14:42:22.416Z,99911.31
2023-07-31T14:44:50.778Z,99906.13
2023-07-31T14:47:32.101Z,99900.03
2023-07-31T14:50:03.249Z,99897.19
2023-07-31T14:52:31.586Z,99892.91
2023-07-31T14:55:03.492Z,99900.69
2023-07-31T14:57:38.752Z,99894.97
2023-07-31T15:00:08.769Z,99888.34
2023-07-31T15:02:47.498Z,99885.44
2023-07-31T15:05:22.712Z,99895.47
2023-07-31T15:07:51.258Z,99902.28
2023-07-31T15:10:23.513Z,99898.81
2023-07-31T15:12:57.388Z,99900.84
2023-07-31T15:15:25.880Z,99904.69
2023-07-31T15:17:59.884Z,99911.94
2023-07-31T15:20:37.118Z,99917.84
2023-07-31T15:23:08.333Z,99915.38
2023-07-31T15:25:38.271Z,99911.63
2023-07-31T15:28:13.065Z,99910.47
2023-07-31T15:30:46.911Z,99910.97
2023-07-31T15:33:17.889Z,99909.66
2023-07-31T15:35:47.916Z,99897.59
2023-07-31T15:38:16.429Z,99903.03
2023-07-31T15:40:47.386Z,99906.38
2023-07-31T15:43:24.692Z,99891.97
2023-07-31T15:45:56.323Z,99896.38
2023-07-31T15:48:24.633Z,99898.97
2023-07-31T15:51:01.484Z,99908.50
2023-07-31T15:53:35.893Z,99889.16
2023-07-31T15:56:11.062Z,99893.34
2023-07-31T15:58:43.276Z,99882.22
2023-07-31T16:01:15.818Z,99876.88
2023-07-31T16:03:46.776Z,99881.88
2023-07-31T16:06:30.591Z,99884.84
2023-07-31T16:09:00.739Z,99892.75
2023-07-31T16:11:33.515Z,99889.81
2023-07-31T16:14:04.888Z,99884.97
2023-07-31T16:16:37.798Z,99875.44
2023-07-31T16:19:09.033Z,99879.66
2023-07-31T16:21:41.828Z,99879.97
2023-07-31T16:24:10.654Z,99872.34
2023-07-31T16:26:43.850Z,99875.63
2023-07-31T16:29:12.337Z,99867.38
2023-07-31T16:31:55.489Z,99868.31
2023-07-31T16:34:28.532Z,99875.72
2023-07-31T16:36:57.131Z,99857.25
2023-07-31T16:39:28.162Z,99856.13
2023-07-31T16:42:05.201Z,99856.97
2023-07-31T16:44:43.629Z,99861.69
2023-07-31T16:47:15.808Z,99864.09
2023-07-31T16:49:53.497Z,99855.16
2023-07-31T16:52:24.225Z,99851.69
2023-07-31T16:55:02.866Z,99841.53
2023-07-31T16:57:34.559Z,99839.97
2023-07-31T17:00:03.626Z,99842.78
2023-07-31T17:02:35.319Z,99831.75
2023-07-31T17:05:07.271Z,99828.78
2023-07-31T17:07:41.023Z,99821.94
2023-07-31T17:10:18.717Z,99826.72
2023-07-31T17:12:56.888Z,99823.47
2023-07-31T17:15:25.783Z,99819.22
2023-07-31T17:17:57.227Z,99814.94
2023-07-31T17:20:28.403Z,99812.13
2023-07-31T17:23:00.868Z,99812.28
2023-07-31T17:25:33.060Z,99812.59
2023-07-31T17:28:07.368Z,99804.63
2023-07-31T17:30:42.949Z,99805.19
2023-07-31T17:33:11.782Z,99799.63
2023-07-31T17:35:48.501Z,99808.63
2023-07-31T17:38:26.238Z,99802.19
2023-07-31T17:40:56.593Z,99812.34
2023-07-31T17:43:30.722Z,99804.97
2023-07-31T17:46:03.626Z,99811.84
2023-07-31T17:48:34.826Z,99813.59
2023-07-31T17:51:06.130Z,99813.97
2023-07-31T17:53:37.119Z,99813.97
2023-07-31T17:56:06.698Z,99823.69
2023-07-31T17:58:36.431Z,99813.53
2023-07-31T18:01:09.510Z,99808.72
2023-07-31T18:03:41.122Z,99794.66
2023-07-31T18:06:14.928Z,99793.94
2023-07-31T18:08:48.530Z,99791.50
2023-07-31T18:11:22.552Z,99790.97
2023-07-31T18:13:56.462Z,99789.97
2023-07-31T18:16:28.364Z,99787.41
2023-07-31T18:18:59.738Z,99793.97
2023-07-31T18:21:30.752Z,99801.03
2023-07-31T18:24:00.233Z,99786.44
2023-07-31T18:26:28.982Z,99792.06
2023-07-31T18:29:00.833Z,99789.34
2023-07-31T18:31:33.132Z,99783.25
2023-07-31T18:34:11.332Z,99785.63
2023-07-31T18:36:44.576Z,99795.44
2023-07-31T18:39:35.801Z,99792.84
2023-07-31T18:42:08.002Z,99796.66
2023-07-31T18:44:39.886Z,99775.44
2023-07-31T18:47:13.013Z,99789.94
2023-07-31T18:49:47.760Z,99794.09
2023-07-31T18:52:21.318Z,99787.03
2023-07-31T18:54:49.916Z,99777.69
2023-07-31T18:57:23.614Z,99788.63
2023-07-31T18:59:57.504Z,99793.72
2023-07-31T19:02:28.704Z,99796.88
2023-07-31T19:05:11.106Z,99789.69
2023-07-31T19:07:44.110Z,99781.38
2023-07-31T19:10:16.562Z,99777.22
2023-07-31T19:12:47.162Z,99782.13
2023-07-31T19:15:19.560Z,99787.63
2023-07-31T19:17:48.514Z,99779.22
2023-07-31T19:20:17.560Z,99785.66
2023-07-31T19:22:50.517Z,99790.72
2023-07-31T19:25:28.533Z,99787.19
2023-07-31T19:28:01.300Z,99778.66
2023-07-31T19:30:35.380Z,99784.19
2023-07-31T19:33:07.740Z,99780.19
2023-07-31T19:35:36.259Z,99771.72
2023-07-31T19:38:05.136Z,99769.97
2023-07-31T19:40:38.731Z,99764.09
2023-07-31T19:43:16.727Z,99775.84
2023-07-31T19:46:01.803Z,99777.94
2023-07-31T19:48:36.884Z,99767.34
2023-07-31T19:51:20.358Z,99758.19
2023-07-31T19:53:55.512Z,99767.34
2023-07-31T19:56:23.800Z,99763.09
2023-07-31T19:58:53.818Z,99762.00
2023-07-31T20:01:30.898Z,99765.09
2023-07-31T20:03:59.810Z,99763.56
2023-07-31T20:06:31.578Z,99772.69
2023-07-31T20:09:05.345Z,99762.53
2023-07-31T20:11:36.576Z,99762.88
2023-07-31T20:14:07.668Z,99759.59
2023-07-31T20:16:42.126Z,99752.44
2023-07-31T20:19:22.874Z,99749.53
2023-07-31T20:21:55.400Z,99756.53
2023-07-31T20:24:32.175Z,99755.78
2023-07-31T20:27:03.719Z,99754.25
2023-07-31T20:29:34.656Z,99753.63
2023-07-31T20:32:04.749Z,99748.25
2023-07-31T20:34:32.952Z,99738.53
2023-07-31T20:37:01.438Z,99724.31
2023-07-31T20:39:29.758Z,99705.91
2023-07-31T20:41:58.102Z,99692.28
2023-07-31T20:44:28.570Z,99684.13
2023-07-31T20:46:56.857Z,99685.13
2023-07-31T20:49:26.519Z,99678.06
2023-07-31T20:51:57.749Z,99667.44
2023-07-31T20:54:26.852Z,99667.97
2023-07-31T20:56:55.261Z,99656.75
2023-07-31T20:59:23.514Z,99661.25
2023-07-31T21:01:52.160Z,99655.09
2023-07-31T21:04:20.481Z,99655.53
2023-07-31T21:06:50.291Z,99660.31
2023-07-31T21:09:18.808Z,99663.22
2023-07-31T21:11:47.530Z,99659.69
2023-07-31T21:14:16.088Z,99656.16
2023-07-31T21:16:44.378Z,99654.00
2023-07-31T21:19:13.702Z,99647.66
2023-07-31T21:21:41.986Z,99644.75
2023-07-31T21:24:11.841Z,99633.22
2023-07-31T21:26:40.946Z,99626.19
2023-07-31T21:29:09.722Z,99625.03
2023-07-31T21:31:38.313Z,99617.06
2023-07-31T21:34:06.570Z,99606.47
2023-07-31T21:36:34.830Z,99604.59
2023-07-31T21:39:03.743Z,99588.09
2023-07-31T21:41:33.443Z,99577.41
2023-07-31T21:44:01.666Z,99575.84
2023-07-31T21:46:30.155Z,99565.38
2023-07-31T21:48:58.545Z,99560.44
2023-07-31T21:51:28.225Z,99544.88
2023-07-31T21:53:56.677Z,99536.66
2023-07-31T21:56:25.007Z,99531.06
2023-07-31T21:58:54.731Z,99527.63
2023-07-31T22:01:22.912Z,99514.25
2023-07-31T22:03:51.343Z,99504.50
2023-07-31T22:06:19.563Z,99503.22
2023-07-31T22:08:47.836Z,99496.09
2023-07-31T22:11:16.106Z,99497.63
2023-07-31T22:13:47.455Z,99505.59
2023-07-31T22:16:18.890Z,99516.47
2023-07-31T22:18:47.251Z,99506.91
2023-07-31T22:21:21.052Z,99518.44
2023-07-31T22:23:49.480Z,99523.53
2023-07-31T22:26:18.183Z,99512.84
2023-07-31T22:28:46.505Z,99510.56
2023-07-31T22:31:14.943Z,99503.53
2023-07-31T22:33:44.861Z,99495.84
2023-07-31T22:36:13.223Z,99498.53
2023-07-31T22:38:41.605Z,99490.03
2023-07-31T22:41:09.983Z,99484.44
2023-07-31T22:43:38.858Z,99486.41
2023-07-31T22:46:07.161Z,99477.56
2023-07-31T22:48:35.393Z,99473.88
2023-07-31T22:51:08.177Z,99463.66
2023-07-31T22:53:36.566Z,99465.00
2023-07-31T22:56:05.903Z,99468.09
2023-07-31T22:58:34.236Z,99451.16
2023-07-31T23:01:04.301Z,99454.97
2023-07-31T23:03:32.953Z,99441.31
2023-07-31T23:06:02.142Z,99439.16
2023-07-31T23:08:33.187Z,99425.47
2023-07-31T23:11:01.409Z,99421.44
2023-07-31T23:13:30.156Z,99429.03
2023-07-31T23:15:58.487Z,99418.63
2023-07-31T23:18:27.087Z,99407.94
2023-07-31T23:20:57.468Z,99406.94
2023-07-31T23:23:27.128Z,99401.97
2023-07-31T23:25:56.614Z,99395.81
2023-07-31T23:28:25.320Z,99392.50
2023-07-31T23:31:03.574Z,99394.41
2023-07-31T23:33:32.188Z,99392.41
2023-07-31T23:36:00.884Z,99388.13
2023-07-31T23:38:31.118Z,99375.41
2023-07-31T23:41:01.155Z,99383.53
2023-07-31T23:43:29.716Z,99373.06
2023-07-31T23:45:57.951Z,99361.22
2023-07-31T23:48:28.112Z,99366.81
2023-07-31T23:50:57.534Z,99371.16
2023-07-31T23:53:26.860Z,99373.97
2023-07-31T23:55:55.502Z,99369.34
2023-07-31T23:58:25.454Z,99356.69
